sensor_id;sensor_type;location;lat;lon;timestamp;P1;durP1;ratioP1;P2;durP2;ratioP2
6029;SDS011;3043;42.682;23.376;2023-03-01T00:01:22;6.70;;;3.90;;
6029;SDS011;3043;42.682;23.376;2023-03-01T00:03:50;5.80;;;3.13;;
6029;SDS011;3043;42.682;23.376;2023-03-01T00:06:16;4.63;;;2.77;;
6029;SDS011;3043;42.682;23.376;2023-03-01T00:08:42;4.97;;;2.67;;
6029;SDS011;3043;42.682;23.376;2023-03-01T00:13:42;6.17;;;3.00;;
6029;SDS011;3043;42.682;23.376;2023-03-01T00:16:09;5.77;;;3.13;;
6029;SDS011;3043;42.682;23.376;2023-03-01T00:18:38;6.00;;;3.17;;
6029;SDS011;3043;42.682;23.376;2023-03-01T00:21:04;5.43;;;3.00;;
6029;SDS011;3043;42.682;23.376;2023-03-01T00:23:30;4.77;;;2.73;;
6029;SDS011;3043;42.682;23.376;2023-03-01T00:25:56;4.50;;;2.67;;
6029;SDS011;3043;42.682;23.376;2023-03-01T00:28:21;5.80;;;2.97;;
6029;SDS011;3043;42.682;23.376;2023-03-01T00:30:47;6.03;;;3.23;;
6029;SDS011;3043;42.682;23.376;2023-03-01T00:33:12;5.67;;;3.30;;
6029;SDS011;3043;42.682;23.376;2023-03-01T00:35:38;4.67;;;2.90;;
6029;SDS011;3043;42.682;23.376;2023-03-01T00:38:04;7.20;;;3.40;;
6029;SDS011;3043;42.682;23.376;2023-03-01T00:40:31;5.10;;;3.00;;
6029;SDS011;3043;42.682;23.376;2023-03-01T00:42:58;5.73;;;3.00;;
6029;SDS011;3043;42.682;23.376;2023-03-01T00:45:24;6.27;;;3.13;;
6029;SDS011;3043;42.682;23.376;2023-03-01T00:47:50;5.33;;;2.87;;
6029;SDS011;3043;42.682;23.376;2023-03-01T00:50:16;5.97;;;3.00;;
6029;SDS011;3043;42.682;23.376;2023-03-01T00:52:42;5.90;;;3.00;;
6029;SDS011;3043;42.682;23.376;2023-03-01T00:55:08;5.30;;;2.80;;
6029;SDS011;3043;42.682;23.376;2023-03-01T00:57:33;5.57;;;2.80;;
6029;SDS011;3043;42.682;23.376;2023-03-01T00:59:59;5.63;;;3.17;;
6029;SDS011;3043;42.682;23.376;2023-03-01T01:02:25;5.83;;;3.23;;
6029;SDS011;3043;42.682;23.376;2023-03-01T01:04:50;5.77;;;3.10;;
6029;SDS011;3043;42.682;23.376;2023-03-01T01:07:16;5.63;;;3.23;;
6029;SDS011;3043;42.682;23.376;2023-03-01T01:09:42;7.17;;;3.60;;
6029;SDS011;3043;42.682;23.376;2023-03-01T01:12:08;5.83;;;3.00;;
6029;SDS011;3043;42.682;23.376;2023-03-01T01:14:33;8.60;;;3.27;;
6029;SDS011;3043;42.682;23.376;2023-03-01T01:17:00;6.30;;;3.37;;
6029;SDS011;3043;42.682;23.376;2023-03-01T01:19:25;6.07;;;3.33;;
6029;SDS011;3043;42.682;23.376;2023-03-01T01:21:51;6.23;;;2.90;;
6029;SDS011;3043;42.682;23.376;2023-03-01T01:24:17;4.60;;;2.50;;
6029;SDS011;3043;42.682;23.376;2023-03-01T01:26:43;6.90;;;3.10;;
6029;SDS011;3043;42.682;23.376;2023-03-01T01:29:09;5.03;;;2.60;;
6029;SDS011;3043;42.682;23.376;2023-03-01T01:31:36;5.87;;;3.00;;
6029;SDS011;3043;42.682;23.376;2023-03-01T01:34:03;5.47;;;2.90;;
6029;SDS011;3043;42.682;23.376;2023-03-01T01:36:31;4.27;;;2.67;;
6029;SDS011;3043;42.682;23.376;2023-03-01T01:38:57;5.43;;;2.97;;
6029;SDS011;3043;42.682;23.376;2023-03-01T01:41:24;5.30;;;3.13;;
6029;SDS011;3043;42.682;23.376;2023-03-01T01:46:50;6.03;;;3.07;;
6029;SDS011;3043;42.682;23.376;2023-03-01T01:51:50;5.00;;;3.00;;
6029;SDS011;3043;42.682;23.376;2023-03-01T01:54:27;5.03;;;2.67;;
6029;SDS011;3043;42.682;23.376;2023-03-01T01:57:03;5.13;;;2.73;;
6029;SDS011;3043;42.682;23.376;2023-03-01T01:59:33;5.43;;;2.70;;
6029;SDS011;3043;42.682;23.376;2023-03-01T02:02:00;5.30;;;3.40;;
6029;SDS011;3043;42.682;23.376;2023-03-01T02:04:28;6.00;;;3.63;;
6029;SDS011;3043;42.682;23.376;2023-03-01T02:06:58;6.07;;;3.60;;
6029;SDS011;3043;42.682;23.376;2023-03-01T02:09:28;6.73;;;3.90;;
6029;SDS011;3043;42.682;23.376;2023-03-01T02:11:55;4.77;;;2.73;;
6029;SDS011;3043;42.682;23.376;2023-03-01T02:14:22;5.37;;;2.87;;
6029;SDS011;3043;42.682;23.376;2023-03-01T02:16:47;5.33;;;3.20;;
6029;SDS011;3043;42.682;23.376;2023-03-01T02:19:18;5.07;;;3.07;;
6029;SDS011;3043;42.682;23.376;2023-03-01T02:24:32;4.53;;;2.50;;
6029;SDS011;3043;42.682;23.376;2023-03-01T02:27:14;5.10;;;2.70;;
6029;SDS011;3043;42.682;23.376;2023-03-01T02:29:42;4.70;;;2.73;;
6029;SDS011;3043;42.682;23.376;2023-03-01T02:32:09;5.63;;;3.07;;
6029;SDS011;3043;42.682;23.376;2023-03-01T02:34:37;5.70;;;3.10;;
6029;SDS011;3043;42.682;23.376;2023-03-01T02:37:06;5.20;;;3.23;;
6029;SDS011;3043;42.682;23.376;2023-03-01T02:39:40;7.57;;;4.13;;
6029;SDS011;3043;42.682;23.376;2023-03-01T02:42:11;4.40;;;2.70;;
6029;SDS011;3043;42.682;23.376;2023-03-01T02:44:40;5.63;;;3.03;;
6029;SDS011;3043;42.682;23.376;2023-03-01T02:47:05;6.20;;;3.40;;
6029;SDS011;3043;42.682;23.376;2023-03-01T02:49:32;6.23;;;3.00;;
6029;SDS011;3043;42.682;23.376;2023-03-01T02:55:19;5.80;;;3.17;;
6029;SDS011;3043;42.682;23.376;2023-03-01T02:57:26;5.87;;;3.00;;
6029;SDS011;3043;42.682;23.376;2023-03-01T02:59:54;6.27;;;3.30;;
6029;SDS011;3043;42.682;23.376;2023-03-01T03:02:22;8.50;;;4.03;;
6029;SDS011;3043;42.682;23.376;2023-03-01T03:05:06;6.13;;;3.33;;
6029;SDS011;3043;42.682;23.376;2023-03-01T03:07:35;6.20;;;3.50;;
6029;SDS011;3043;42.682;23.376;2023-03-01T03:10:02;7.70;;;4.30;;
6029;SDS011;3043;42.682;23.376;2023-03-01T03:12:29;7.07;;;3.40;;
6029;SDS011;3043;42.682;23.376;2023-03-01T03:14:55;8.53;;;4.33;;
6029;SDS011;3043;42.682;23.376;2023-03-01T03:17:20;5.80;;;3.33;;
6029;SDS011;3043;42.682;23.376;2023-03-01T03:19:45;5.37;;;2.97;;
6029;SDS011;3043;42.682;23.376;2023-03-01T03:22:11;6.00;;;3.27;;
6029;SDS011;3043;42.682;23.376;2023-03-01T03:24:37;5.13;;;2.97;;
6029;SDS011;3043;42.682;23.376;2023-03-01T03:27:06;7.23;;;4.13;;
6029;SDS011;3043;42.682;23.376;2023-03-01T03:29:32;5.87;;;3.60;;
6029;SDS011;3043;42.682;23.376;2023-03-01T03:31:58;6.50;;;3.40;;
6029;SDS011;3043;42.682;23.376;2023-03-01T03:34:23;6.77;;;3.57;;
6029;SDS011;3043;42.682;23.376;2023-03-01T03:36:55;7.67;;;4.10;;
6029;SDS011;3043;42.682;23.376;2023-03-01T03:39:24;6.60;;;3.67;;
6029;SDS011;3043;42.682;23.376;2023-03-01T03:41:51;6.97;;;3.80;;
6029;SDS011;3043;42.682;23.376;2023-03-01T03:44:17;6.60;;;3.70;;
6029;SDS011;3043;42.682;23.376;2023-03-01T03:46:43;6.60;;;3.67;;
6029;SDS011;3043;42.682;23.376;2023-03-01T03:49:08;6.40;;;3.50;;
6029;SDS011;3043;42.682;23.376;2023-03-01T03:51:34;6.87;;;3.70;;
6029;SDS011;3043;42.682;23.376;2023-03-01T03:53:59;5.87;;;3.47;;
6029;SDS011;3043;42.682;23.376;2023-03-01T03:56:24;6.87;;;3.83;;
6029;SDS011;3043;42.682;23.376;2023-03-01T03:58:51;6.20;;;3.40;;
6029;SDS011;3043;42.682;23.376;2023-03-01T04:01:19;5.33;;;2.87;;
6029;SDS011;3043;42.682;23.376;2023-03-01T04:03:44;6.60;;;3.87;;
6029;SDS011;3043;42.682;23.376;2023-03-01T04:06:13;6.43;;;3.70;;
6029;SDS011;3043;42.682;23.376;2023-03-01T04:08:39;7.10;;;3.53;;
6029;SDS011;3043;42.682;23.376;2023-03-01T04:11:05;6.20;;;3.40;;
6029;SDS011;3043;42.682;23.376;2023-03-01T04:13:50;5.07;;;2.80;;
6029;SDS011;3043;42.682;23.376;2023-03-01T04:16:17;4.70;;;2.80;;
6029;SDS011;3043;42.682;23.376;2023-03-01T04:18:43;5.30;;;2.77;;
6029;SDS011;3043;42.682;23.376;2023-03-01T04:21:08;5.37;;;2.60;;
6029;SDS011;3043;42.682;23.376;2023-03-01T04:23:34;5.07;;;2.60;;
6029;SDS011;3043;42.682;23.376;2023-03-01T04:26:00;4.57;;;2.70;;
6029;SDS011;3043;42.682;23.376;2023-03-01T04:28:29;4.80;;;2.80;;
6029;SDS011;3043;42.682;23.376;2023-03-01T04:31:01;4.70;;;2.37;;
6029;SDS011;3043;42.682;23.376;2023-03-01T04:33:41;4.87;;;2.80;;
6029;SDS011;3043;42.682;23.376;2023-03-01T04:36:07;5.57;;;2.97;;
6029;SDS011;3043;42.682;23.376;2023-03-01T04:38:34;5.43;;;2.73;;
6029;SDS011;3043;42.682;23.376;2023-03-01T04:41:02;5.33;;;2.70;;
6029;SDS011;3043;42.682;23.376;2023-03-01T04:43:32;5.30;;;2.83;;
6029;SDS011;3043;42.682;23.376;2023-03-01T04:46:06;6.20;;;3.07;;
6029;SDS011;3043;42.682;23.376;2023-03-01T04:48:36;6.10;;;3.37;;
6029;SDS011;3043;42.682;23.376;2023-03-01T04:51:02;6.40;;;3.47;;
6029;SDS011;3043;42.682;23.376;2023-03-01T04:53:28;6.20;;;3.30;;
6029;SDS011;3043;42.682;23.376;2023-03-01T04:55:54;5.40;;;2.87;;
6029;SDS011;3043;42.682;23.376;2023-03-01T04:58:24;6.07;;;3.53;;
6029;SDS011;3043;42.682;23.376;2023-03-01T05:00:51;7.47;;;4.03;;
6029;SDS011;3043;42.682;23.376;2023-03-01T05:03:17;7.17;;;4.10;;
6029;SDS011;3043;42.682;23.376;2023-03-01T05:05:43;8.17;;;4.17;;
6029;SDS011;3043;42.682;23.376;2023-03-01T05:08:09;7.50;;;4.03;;
6029;SDS011;3043;42.682;23.376;2023-03-01T05:10:43;8.73;;;4.83;;
6029;SDS011;3043;42.682;23.376;2023-03-01T05:13:14;10.97;;;5.90;;
6029;SDS011;3043;42.682;23.376;2023-03-01T05:15:53;11.37;;;6.80;;
6029;SDS011;3043;42.682;23.376;2023-03-01T05:18:20;11.83;;;5.97;;
6029;SDS011;3043;42.682;23.376;2023-03-01T05:20:46;9.73;;;5.87;;
6029;SDS011;3043;42.682;23.376;2023-03-01T05:23:12;11.37;;;6.30;;
6029;SDS011;3043;42.682;23.376;2023-03-01T05:25:37;10.27;;;6.33;;
6029;SDS011;3043;42.682;23.376;2023-03-01T05:28:05;12.17;;;6.73;;
6029;SDS011;3043;42.682;23.376;2023-03-01T05:30:34;19.27;;;8.90;;
6029;SDS011;3043;42.682;23.376;2023-03-01T05:33:00;10.60;;;5.77;;
6029;SDS011;3043;42.682;23.376;2023-03-01T05:35:26;10.00;;;5.00;;
6029;SDS011;3043;42.682;23.376;2023-03-01T05:37:52;10.97;;;6.40;;
6029;SDS011;3043;42.682;23.376;2023-03-01T05:40:19;9.87;;;5.53;;
6029;SDS011;3043;42.682;23.376;2023-03-01T05:42:48;10.20;;;6.87;;
6029;SDS011;3043;42.682;23.376;2023-03-01T05:45:14;9.70;;;5.13;;
6029;SDS011;3043;42.682;23.376;2023-03-01T05:47:42;9.23;;;5.50;;
6029;SDS011;3043;42.682;23.376;2023-03-01T05:53:00;9.80;;;5.70;;
6029;SDS011;3043;42.682;23.376;2023-03-01T05:55:29;10.43;;;6.43;;
6029;SDS011;3043;42.682;23.376;2023-03-01T05:57:57;11.03;;;4.90;;
6029;SDS011;3043;42.682;23.376;2023-03-01T06:00:24;8.33;;;4.47;;
6029;SDS011;3043;42.682;23.376;2023-03-01T06:02:50;8.27;;;4.00;;
6029;SDS011;3043;42.682;23.376;2023-03-01T06:05:17;7.13;;;3.90;;
6029;SDS011;3043;42.682;23.376;2023-03-01T06:07:42;7.37;;;4.20;;
6029;SDS011;3043;42.682;23.376;2023-03-01T06:10:09;7.80;;;4.30;;
6029;SDS011;3043;42.682;23.376;2023-03-01T06:12:36;8.60;;;4.87;;
6029;SDS011;3043;42.682;23.376;2023-03-01T06:15:04;7.67;;;4.63;;
6029;SDS011;3043;42.682;23.376;2023-03-01T06:17:31;8.97;;;5.63;;
6029;SDS011;3043;42.682;23.376;2023-03-01T06:19:58;8.50;;;4.37;;
6029;SDS011;3043;42.682;23.376;2023-03-01T06:22:23;7.83;;;3.73;;
6029;SDS011;3043;42.682;23.376;2023-03-01T06:24:49;8.97;;;4.53;;
6029;SDS011;3043;42.682;23.376;2023-03-01T06:27:14;6.33;;;3.60;;
6029;SDS011;3043;42.682;23.376;2023-03-01T06:29:40;6.23;;;3.43;;
6029;SDS011;3043;42.682;23.376;2023-03-01T06:32:06;7.00;;;3.57;;
6029;SDS011;3043;42.682;23.376;2023-03-01T06:34:33;5.80;;;3.30;;
6029;SDS011;3043;42.682;23.376;2023-03-01T06:36:58;7.47;;;3.60;;
6029;SDS011;3043;42.682;23.376;2023-03-01T06:39:24;7.33;;;4.20;;
6029;SDS011;3043;42.682;23.376;2023-03-01T06:41:49;7.63;;;4.17;;
6029;SDS011;3043;42.682;23.376;2023-03-01T06:44:14;5.60;;;3.37;;
6029;SDS011;3043;42.682;23.376;2023-03-01T06:46:40;6.10;;;3.53;;
6029;SDS011;3043;42.682;23.376;2023-03-01T06:49:06;9.67;;;3.87;;
6029;SDS011;3043;42.682;23.376;2023-03-01T06:51:35;7.00;;;4.00;;
6029;SDS011;3043;42.682;23.376;2023-03-01T06:54:01;6.47;;;3.20;;
6029;SDS011;3043;42.682;23.376;2023-03-01T06:56:28;6.20;;;3.63;;
6029;SDS011;3043;42.682;23.376;2023-03-01T06:58:53;8.47;;;4.63;;
6029;SDS011;3043;42.682;23.376;2023-03-01T07:01:18;7.53;;;4.47;;
6029;SDS011;3043;42.682;23.376;2023-03-01T07:03:44;6.93;;;3.90;;
6029;SDS011;3043;42.682;23.376;2023-03-01T07:06:09;8.77;;;3.90;;
6029;SDS011;3043;42.682;23.376;2023-03-01T07:08:35;5.47;;;3.33;;
6029;SDS011;3043;42.682;23.376;2023-03-01T07:11:00;6.00;;;4.50;;
6029;SDS011;3043;42.682;23.376;2023-03-01T07:13:27;6.63;;;3.67;;
6029;SDS011;3043;42.682;23.376;2023-03-01T07:15:53;5.83;;;3.33;;
6029;SDS011;3043;42.682;23.376;2023-03-01T07:18:18;8.63;;;3.87;;
6029;SDS011;3043;42.682;23.376;2023-03-01T07:20:44;8.10;;;3.87;;
6029;SDS011;3043;42.682;23.376;2023-03-01T07:23:09;6.57;;;3.73;;
6029;SDS011;3043;42.682;23.376;2023-03-01T07:25:35;6.10;;;3.67;;
6029;SDS011;3043;42.682;23.376;2023-03-01T07:28:00;6.20;;;3.57;;
6029;SDS011;3043;42.682;23.376;2023-03-01T07:30:25;6.57;;;3.50;;
6029;SDS011;3043;42.682;23.376;2023-03-01T07:32:53;6.00;;;3.47;;
6029;SDS011;3043;42.682;23.376;2023-03-01T07:35:20;6.83;;;3.30;;
6029;SDS011;3043;42.682;23.376;2023-03-01T07:37:46;5.13;;;3.13;;
6029;SDS011;3043;42.682;23.376;2023-03-01T07:40:11;5.70;;;2.80;;
6029;SDS011;3043;42.682;23.376;2023-03-01T07:42:37;10.20;;;4.00;;
6029;SDS011;3043;42.682;23.376;2023-03-01T07:45:03;8.07;;;3.60;;
6029;SDS011;3043;42.682;23.376;2023-03-01T07:47:29;7.30;;;3.53;;
6029;SDS011;3043;42.682;23.376;2023-03-01T07:49:55;7.07;;;3.47;;
6029;SDS011;3043;42.682;23.376;2023-03-01T07:52:20;5.70;;;3.00;;
6029;SDS011;3043;42.682;23.376;2023-03-01T07:54:46;7.10;;;3.20;;
6029;SDS011;3043;42.682;23.376;2023-03-01T07:57:12;5.90;;;2.70;;
6029;SDS011;3043;42.682;23.376;2023-03-01T07:59:38;6.20;;;2.83;;
6029;SDS011;3043;42.682;23.376;2023-03-01T08:02:03;6.23;;;3.07;;
6029;SDS011;3043;42.682;23.376;2023-03-01T08:04:29;9.10;;;3.30;;
6029;SDS011;3043;42.682;23.376;2023-03-01T08:06:54;5.03;;;2.77;;
6029;SDS011;3043;42.682;23.376;2023-03-01T08:09:20;6.53;;;2.77;;
6029;SDS011;3043;42.682;23.376;2023-03-01T08:11:46;6.10;;;3.17;;
6029;SDS011;3043;42.682;23.376;2023-03-01T08:14:12;4.63;;;2.27;;
6029;SDS011;3043;42.682;23.376;2023-03-01T08:16:38;6.03;;;2.60;;
6029;SDS011;3043;42.682;23.376;2023-03-01T08:19:07;7.57;;;3.30;;
6029;SDS011;3043;42.682;23.376;2023-03-01T08:21:34;6.63;;;3.03;;
6029;SDS011;3043;42.682;23.376;2023-03-01T08:24:01;7.93;;;3.40;;
6029;SDS011;3043;42.682;23.376;2023-03-01T08:26:31;6.47;;;2.90;;
6029;SDS011;3043;42.682;23.376;2023-03-01T08:28:57;6.70;;;3.07;;
6029;SDS011;3043;42.682;23.376;2023-03-01T08:31:26;5.00;;;2.50;;
6029;SDS011;3043;42.682;23.376;2023-03-01T08:33:55;5.80;;;2.60;;
6029;SDS011;3043;42.682;23.376;2023-03-01T08:36:29;6.83;;;2.73;;
6029;SDS011;3043;42.682;23.376;2023-03-01T08:38:56;4.03;;;2.50;;
6029;SDS011;3043;42.682;23.376;2023-03-01T08:41:22;5.40;;;2.87;;
6029;SDS011;3043;42.682;23.376;2023-03-01T08:43:48;6.00;;;2.80;;
6029;SDS011;3043;42.682;23.376;2023-03-01T08:46:13;4.27;;;2.23;;
6029;SDS011;3043;42.682;23.376;2023-03-01T08:48:39;5.70;;;3.10;;
6029;SDS011;3043;42.682;23.376;2023-03-01T08:51:15;4.83;;;2.93;;
6029;SDS011;3043;42.682;23.376;2023-03-01T08:53:42;5.63;;;3.30;;
6029;SDS011;3043;42.682;23.376;2023-03-01T08:56:08;6.27;;;3.00;;
6029;SDS011;3043;42.682;23.376;2023-03-01T08:58:34;6.07;;;2.60;;
6029;SDS011;3043;42.682;23.376;2023-03-01T09:01:00;3.67;;;2.27;;
6029;SDS011;3043;42.682;23.376;2023-03-01T09:03:26;4.07;;;2.40;;
6029;SDS011;3043;42.682;23.376;2023-03-01T09:05:52;7.00;;;3.30;;
6029;SDS011;3043;42.682;23.376;2023-03-01T09:08:18;6.63;;;2.90;;
6029;SDS011;3043;42.682;23.376;2023-03-01T09:10:44;5.30;;;2.67;;
6029;SDS011;3043;42.682;23.376;2023-03-01T09:13:10;6.30;;;2.63;;
6029;SDS011;3043;42.682;23.376;2023-03-01T09:15:39;5.30;;;2.63;;
6029;SDS011;3043;42.682;23.376;2023-03-01T09:18:04;4.80;;;2.30;;
6029;SDS011;3043;42.682;23.376;2023-03-01T09:20:30;4.57;;;2.13;;
6029;SDS011;3043;42.682;23.376;2023-03-01T09:22:57;5.33;;;2.77;;
6029;SDS011;3043;42.682;23.376;2023-03-01T09:25:23;4.20;;;2.40;;
6029;SDS011;3043;42.682;23.376;2023-03-01T09:27:52;4.17;;;2.27;;
6029;SDS011;3043;42.682;23.376;2023-03-01T09:30:18;6.13;;;2.70;;
6029;SDS011;3043;42.682;23.376;2023-03-01T09:32:44;5.10;;;2.53;;
6029;SDS011;3043;42.682;23.376;2023-03-01T09:35:09;4.87;;;2.50;;
6029;SDS011;3043;42.682;23.376;2023-03-01T09:37:36;7.43;;;3.10;;
6029;SDS011;3043;42.682;23.376;2023-03-01T09:40:03;7.33;;;2.20;;
6029;SDS011;3043;42.682;23.376;2023-03-01T09:42:33;5.47;;;2.30;;
6029;SDS011;3043;42.682;23.376;2023-03-01T09:45:02;2.43;;;1.80;;
6029;SDS011;3043;42.682;23.376;2023-03-01T09:47:31;1.90;;;1.67;;
6029;SDS011;3043;42.682;23.376;2023-03-01T09:52:43;3.90;;;2.10;;
6029;SDS011;3043;42.682;23.376;2023-03-01T09:55:11;5.17;;;1.97;;
6029;SDS011;3043;42.682;23.376;2023-03-01T09:57:41;5.07;;;2.20;;
6029;SDS011;3043;42.682;23.376;2023-03-01T10:02:57;4.37;;;2.00;;
6029;SDS011;3043;42.682;23.376;2023-03-01T10:10:33;2.77;;;1.90;;
6029;SDS011;3043;42.682;23.376;2023-03-01T10:13:04;2.90;;;2.07;;
6029;SDS011;3043;42.682;23.376;2023-03-01T10:15:47;3.17;;;1.90;;
6029;SDS011;3043;42.682;23.376;2023-03-01T10:18:26;3.57;;;2.00;;
6029;SDS011;3043;42.682;23.376;2023-03-01T10:20:58;4.47;;;2.37;;
6029;SDS011;3043;42.682;23.376;2023-03-01T10:23:26;4.73;;;2.30;;
6029;SDS011;3043;42.682;23.376;2023-03-01T10:31:26;5.03;;;2.40;;
6029;SDS011;3043;42.682;23.376;2023-03-01T10:34:02;4.60;;;2.40;;
6029;SDS011;3043;42.682;23.376;2023-03-01T10:36:30;3.67;;;2.17;;
6029;SDS011;3043;42.682;23.376;2023-03-01T10:38:58;3.37;;;1.87;;
6029;SDS011;3043;42.682;23.376;2023-03-01T10:41:25;3.57;;;1.90;;
6029;SDS011;3043;42.682;23.376;2023-03-01T10:43:55;3.83;;;2.07;;
6029;SDS011;3043;42.682;23.376;2023-03-01T10:46:26;4.53;;;1.90;;
6029;SDS011;3043;42.682;23.376;2023-03-01T10:51:38;3.13;;;1.90;;
6029;SDS011;3043;42.682;23.376;2023-03-01T10:54:05;3.47;;;1.70;;
6029;SDS011;3043;42.682;23.376;2023-03-01T10:57:00;3.07;;;1.87;;
6029;SDS011;3043;42.682;23.376;2023-03-01T10:59:34;3.70;;;1.90;;
6029;SDS011;3043;42.682;23.376;2023-03-01T11:02:46;3.00;;;1.90;;
6029;SDS011;3043;42.682;23.376;2023-03-01T11:05:17;4.03;;;2.03;;
6029;SDS011;3043;42.682;23.376;2023-03-01T11:10:21;3.83;;;2.23;;
6029;SDS011;3043;42.682;23.376;2023-03-01T11:15:43;4.73;;;2.00;;
6029;SDS011;3043;42.682;23.376;2023-03-01T11:18:23;3.73;;;1.83;;
6029;SDS011;3043;42.682;23.376;2023-03-01T11:20:49;5.20;;;2.90;;
6029;SDS011;3043;42.682;23.376;2023-03-01T11:23:18;4.80;;;2.20;;
6029;SDS011;3043;42.682;23.376;2023-03-01T11:25:49;4.97;;;2.60;;
6029;SDS011;3043;42.682;23.376;2023-03-01T11:28:20;2.40;;;1.70;;
6029;SDS011;3043;42.682;23.376;2023-03-01T11:36:40;3.23;;;1.90;;
6029;SDS011;3043;42.682;23.376;2023-03-01T11:39:33;3.73;;;1.80;;
6029;SDS011;3043;42.682;23.376;2023-03-01T11:44:36;3.87;;;2.20;;
6029;SDS011;3043;42.682;23.376;2023-03-01T11:49:41;7.80;;;2.77;;
6029;SDS011;3043;42.682;23.376;2023-03-01T11:52:42;6.70;;;2.43;;
6029;SDS011;3043;42.682;23.376;2023-03-01T12:00:57;6.80;;;2.40;;
6029;SDS011;3043;42.682;23.376;2023-03-01T12:14:48;6.03;;;3.40;;
6029;SDS011;3043;42.682;23.376;2023-03-01T12:26:05;6.97;;;3.23;;
6029;SDS011;3043;42.682;23.376;2023-03-01T12:28:45;5.20;;;3.00;;
6029;SDS011;3043;42.682;23.376;2023-03-01T12:31:33;3.70;;;2.17;;
6029;SDS011;3043;42.682;23.376;2023-03-01T12:36:38;6.80;;;3.80;;
6029;SDS011;3043;42.682;23.376;2023-03-01T12:42:28;7.13;;;4.07;;
6029;SDS011;3043;42.682;23.376;2023-03-01T12:45:39;6.33;;;3.20;;
6029;SDS011;3043;42.682;23.376;2023-03-01T12:50:52;4.90;;;3.17;;
6029;SDS011;3043;42.682;23.376;2023-03-01T12:53:23;5.50;;;2.80;;
6029;SDS011;3043;42.682;23.376;2023-03-01T12:55:55;6.07;;;3.07;;
6029;SDS011;3043;42.682;23.376;2023-03-01T12:58:33;5.17;;;3.10;;
6029;SDS011;3043;42.682;23.376;2023-03-01T13:11:55;6.00;;;2.83;;
6029;SDS011;3043;42.682;23.376;2023-03-01T13:16:50;5.50;;;2.57;;
6029;SDS011;3043;42.682;23.376;2023-03-01T13:21:47;5.47;;;2.80;;
6029;SDS011;3043;42.682;23.376;2023-03-01T13:24:34;6.63;;;2.83;;
6029;SDS011;3043;42.682;23.376;2023-03-01T13:29:48;5.07;;;3.47;;
6029;SDS011;3043;42.682;23.376;2023-03-01T13:34:47;6.13;;;3.00;;
6029;SDS011;3043;42.682;23.376;2023-03-01T13:37:24;6.83;;;3.43;;
6029;SDS011;3043;42.682;23.376;2023-03-01T13:40:02;6.33;;;3.33;;
6029;SDS011;3043;42.682;23.376;2023-03-01T13:42:38;6.43;;;3.07;;
6029;SDS011;3043;42.682;23.376;2023-03-01T13:45:14;7.67;;;3.47;;
6029;SDS011;3043;42.682;23.376;2023-03-01T13:47:43;8.70;;;3.53;;
6029;SDS011;3043;42.682;23.376;2023-03-01T13:50:16;12.97;;;6.30;;
6029;SDS011;3043;42.682;23.376;2023-03-01T13:52:55;8.60;;;4.60;;
6029;SDS011;3043;42.682;23.376;2023-03-01T13:55:40;6.77;;;3.27;;
6029;SDS011;3043;42.682;23.376;2023-03-01T14:00:55;9.03;;;3.03;;
6029;SDS011;3043;42.682;23.376;2023-03-01T14:03:44;7.53;;;3.23;;
6029;SDS011;3043;42.682;23.376;2023-03-01T14:06:13;6.53;;;3.20;;
6029;SDS011;3043;42.682;23.376;2023-03-01T14:08:45;8.77;;;3.03;;
6029;SDS011;3043;42.682;23.376;2023-03-01T14:19:21;8.97;;;3.40;;
6029;SDS011;3043;42.682;23.376;2023-03-01T14:24:44;9.07;;;2.73;;
6029;SDS011;3043;42.682;23.376;2023-03-01T14:27:14;5.23;;;2.80;;
6029;SDS011;3043;42.682;23.376;2023-03-01T14:29:40;6.60;;;2.80;;
6029;SDS011;3043;42.682;23.376;2023-03-01T14:32:38;6.40;;;3.03;;
6029;SDS011;3043;42.682;23.376;2023-03-01T14:34:58;16.03;;;5.37;;
6029;SDS011;3043;42.682;23.376;2023-03-01T14:37:28;4.97;;;2.90;;
6029;SDS011;3043;42.682;23.376;2023-03-01T14:39:57;6.60;;;2.90;;
6029;SDS011;3043;42.682;23.376;2023-03-01T14:42:25;5.27;;;2.87;;
6029;SDS011;3043;42.682;23.376;2023-03-01T14:44:53;7.13;;;3.73;;
6029;SDS011;3043;42.682;23.376;2023-03-01T14:49:58;8.27;;;3.47;;
6029;SDS011;3043;42.682;23.376;2023-03-01T14:52:39;9.80;;;3.33;;
6029;SDS011;3043;42.682;23.376;2023-03-01T14:55:18;8.03;;;3.20;;
6029;SDS011;3043;42.682;23.376;2023-03-01T14:58:06;6.00;;;2.77;;
6029;SDS011;3043;42.682;23.376;2023-03-01T15:00:37;7.50;;;3.00;;
6029;SDS011;3043;42.682;23.376;2023-03-01T15:03:08;5.87;;;2.67;;
6029;SDS011;3043;42.682;23.376;2023-03-01T15:05:38;6.87;;;3.00;;
6029;SDS011;3043;42.682;23.376;2023-03-01T15:08:05;5.67;;;2.70;;
6029;SDS011;3043;42.682;23.376;2023-03-01T15:10:33;6.03;;;2.87;;
6029;SDS011;3043;42.682;23.376;2023-03-01T15:13:10;5.60;;;2.80;;
6029;SDS011;3043;42.682;23.376;2023-03-01T15:15:45;10.17;;;5.20;;
6029;SDS011;3043;42.682;23.376;2023-03-01T15:20:49;8.80;;;5.13;;
6029;SDS011;3043;42.682;23.376;2023-03-01T15:23:33;6.00;;;2.90;;
6029;SDS011;3043;42.682;23.376;2023-03-01T15:25:59;6.97;;;3.63;;
6029;SDS011;3043;42.682;23.376;2023-03-01T15:28:35;7.27;;;3.60;;
6029;SDS011;3043;42.682;23.376;2023-03-01T15:31:18;6.47;;;3.03;;
6029;SDS011;3043;42.682;23.376;2023-03-01T15:33:47;9.27;;;4.33;;
6029;SDS011;3043;42.682;23.376;2023-03-01T15:36:30;10.53;;;5.07;;
6029;SDS011;3043;42.682;23.376;2023-03-01T15:38:58;5.67;;;2.73;;
6029;SDS011;3043;42.682;23.376;2023-03-01T15:41:45;7.90;;;3.10;;
6029;SDS011;3043;42.682;23.376;2023-03-01T15:44:25;5.33;;;2.87;;
6029;SDS011;3043;42.682;23.376;2023-03-01T15:46:50;6.77;;;3.43;;
6029;SDS011;3043;42.682;23.376;2023-03-01T15:49:23;6.00;;;3.20;;
6029;SDS011;3043;42.682;23.376;2023-03-01T15:52:04;7.77;;;3.37;;
6029;SDS011;3043;42.682;23.376;2023-03-01T15:54:38;8.37;;;3.50;;
6029;SDS011;3043;42.682;23.376;2023-03-01T15:57:08;8.77;;;3.60;;
6029;SDS011;3043;42.682;23.376;2023-03-01T15:59:38;5.60;;;3.10;;
6029;SDS011;3043;42.682;23.376;2023-03-01T16:02:08;5.33;;;2.97;;
6029;SDS011;3043;42.682;23.376;2023-03-01T16:04:38;5.70;;;3.10;;
6029;SDS011;3043;42.682;23.376;2023-03-01T16:07:04;11.93;;;3.40;;
6029;SDS011;3043;42.682;23.376;2023-03-01T16:09:30;7.60;;;3.50;;
6029;SDS011;3043;42.682;23.376;2023-03-01T16:11:56;6.80;;;3.23;;
6029;SDS011;3043;42.682;23.376;2023-03-01T16:14:22;8.03;;;3.13;;
6029;SDS011;3043;42.682;23.376;2023-03-01T16:16:47;7.97;;;3.47;;
6029;SDS011;3043;42.682;23.376;2023-03-01T16:19:13;8.90;;;3.30;;
6029;SDS011;3043;42.682;23.376;2023-03-01T16:21:39;6.33;;;3.00;;
6029;SDS011;3043;42.682;23.376;2023-03-01T16:24:05;6.10;;;2.63;;
6029;SDS011;3043;42.682;23.376;2023-03-01T16:26:31;7.77;;;3.53;;
6029;SDS011;3043;42.682;23.376;2023-03-01T16:28:57;8.37;;;3.90;;
6029;SDS011;3043;42.682;23.376;2023-03-01T16:31:23;9.73;;;3.80;;
6029;SDS011;3043;42.682;23.376;2023-03-01T16:33:55;8.33;;;3.60;;
6029;SDS011;3043;42.682;23.376;2023-03-01T16:36:22;7.03;;;3.33;;
6029;SDS011;3043;42.682;23.376;2023-03-01T16:38:49;8.47;;;3.63;;
6029;SDS011;3043;42.682;23.376;2023-03-01T16:41:16;6.80;;;3.73;;
6029;SDS011;3043;42.682;23.376;2023-03-01T16:43:42;8.27;;;3.57;;
6029;SDS011;3043;42.682;23.376;2023-03-01T16:46:12;7.30;;;3.63;;
6029;SDS011;3043;42.682;23.376;2023-03-01T16:48:39;8.37;;;4.13;;
6029;SDS011;3043;42.682;23.376;2023-03-01T16:51:04;6.87;;;3.70;;
6029;SDS011;3043;42.682;23.376;2023-03-01T16:53:31;17.03;;;7.60;;
6029;SDS011;3043;42.682;23.376;2023-03-01T16:55:57;8.77;;;4.40;;
6029;SDS011;3043;42.682;23.376;2023-03-01T16:58:23;8.17;;;4.50;;
6029;SDS011;3043;42.682;23.376;2023-03-01T17:00:50;7.93;;;4.10;;
6029;SDS011;3043;42.682;23.376;2023-03-01T17:03:18;8.83;;;4.43;;
6029;SDS011;3043;42.682;23.376;2023-03-01T17:05:44;9.23;;;5.80;;
6029;SDS011;3043;42.682;23.376;2023-03-01T17:08:09;10.83;;;4.67;;
6029;SDS011;3043;42.682;23.376;2023-03-01T17:10:34;11.77;;;5.77;;
6029;SDS011;3043;42.682;23.376;2023-03-01T17:13:00;8.73;;;5.03;;
6029;SDS011;3043;42.682;23.376;2023-03-01T17:15:25;8.60;;;4.90;;
6029;SDS011;3043;42.682;23.376;2023-03-01T17:17:51;13.93;;;8.00;;